Terminal Aerodrome Forecast
Issued by NWS Wakefield, VA

Current Version | Previous Version | Text Only | Print | Product List | Glossary On
Versions: 1 2 3 4 5 6 7 8 9 10 11 12 13 14 15 16 17
000
FTUS41 KAKQ 211100
TAFECG
TAF
KECG 211134Z 2112/2212 22005KT P6SM BKN100
     FM211500 25007KT P6SM SCT100 BKN250
     FM212000 24007KT P6SM SCT120
     FM220300 30006KT P6SM BKN080
     FM220800 29006KT P6SM SCT050=

USA.gov is the U.S. government's official web portal to all federal, state and local government web resources and services.